Time;durP1;ratioP1;P1;durP2;ratioP2;P2;SDS_P1;SDS_P2;PMS_P1;PMS_P2;Temp;Humidity;BMP_temperature;BMP_pressure;BME280_temperature;BME280_humidity;BME280_pressure;Samples;Min_cycle;Max_cycle;Signal;HPM_P1;HPM_P2
2021/08/01 00:00:07;;;;;;;5.03;3.28;;;18.10;99.90;;;;;;4997783;28;20081;-73
2021/08/01 00:02:32;;;;;;;5.82;2.70;;;18.00;99.90;;;;;;5010701;28;20408;-72
2021/08/01 00:04:58;;;;;;;6.45;4.07;;;18.00;99.90;;;;;;4997276;28;20030;-72
2021/08/01 00:07:24;;;;;;;4.38;2.40;;;17.80;99.90;;;;;;5015438;28;20026;-72
2021/08/01 00:09:49;;;;;;;4.35;3.00;;;17.80;99.90;;;;;;5015136;28;20121;-72
2021/08/01 00:12:17;;;;;;;4.43;2.60;;;17.60;99.90;;;;;;5015449;28;20037;-72
2021/08/01 00:14:42;;;;;;;4.50;2.45;;;17.50;99.90;;;;;;5014758;28;20490;-72
2021/08/01 00:17:08;;;;;;;5.85;2.40;;;17.50;99.90;;;;;;5019522;28;20041;-73
2021/08/01 00:19:35;;;;;;;3.60;3.05;;;17.40;99.90;;;;;;5004527;28;20404;-73
2021/08/01 00:22:00;;;;;;;6.18;2.80;;;17.30;99.90;;;;;;5004584;28;20022;-72
2021/08/01 00:24:26;;;;;;;6.85;2.97;;;17.30;99.90;;;;;;5021226;28;20056;-73
2021/08/01 00:26:52;;;;;;;5.70;2.85;;;17.20;99.90;;;;;;5021391;28;20048;-73
2021/08/01 00:29:18;;;;;;;3.92;2.70;;;17.20;1.00;;;;;;5004115;28;20033;-73
2021/08/01 00:31:44;;;;;;;4.03;2.83;;;17.10;1.00;;;;;;5014843;28;20100;-74
2021/08/01 00:34:09;;;;;;;4.65;2.53;;;17.10;1.00;;;;;;5014680;28;20038;-74
2021/08/01 00:36:35;;;;;;;4.50;2.75;;;17.20;1.00;;;;;;5013110;28;20022;-73
2021/08/01 00:39:00;;;;;;;6.53;3.40;;;17.20;1.00;;;;;;5014644;28;20066;-73
2021/08/01 00:41:26;;;;;;;6.10;4.25;;;17.30;1.00;;;;;;4997008;28;20029;-73
2021/08/01 00:43:51;;;;;;;5.18;2.92;;;17.30;1.00;;;;;;5014434;28;20505;-73
2021/08/01 00:46:17;;;;;;;3.60;2.88;;;17.20;1.00;;;;;;5014240;28;20486;-73
2021/08/01 00:48:43;;;;;;;7.30;3.30;;;17.10;1.00;;;;;;5015049;28;20029;-73
2021/08/01 00:51:09;;;;;;;5.55;3.42;;;17.10;1.00;;;;;;5013717;28;20084;-73
2021/08/01 00:53:35;;;;;;;7.60;4.95;;;17.10;1.00;;;;;;5015233;28;20026;-73
2021/08/01 00:56:01;;;;;;;4.72;3.22;;;17.00;1.00;;;;;;5014469;28;20513;-73
2021/08/01 00:58:26;;;;;;;5.13;3.65;;;17.00;1.00;;;;;;5017065;28;20084;-73
2021/08/01 01:03:32;;;;;;;7.37;4.37;;;17.10;1.00;;;;;;5009262;28;20030;-72
2021/08/01 01:06:02;;;;;;;5.15;4.20;;;17.10;1.00;;;;;;4980618;28;20034;-73
2021/08/01 01:09:06;;;;;;;4.45;3.53;;;17.10;1.00;;;;;;5014355;28;20030;-72
2021/08/01 01:11:37;;;;;;;8.25;3.42;;;17.00;1.00;;;;;;4979897;28;20069;-73
2021/08/01 01:14:03;;;;;;;;;;;17.00;1.00;;;;;;5014958;28;20041;-73
2021/08/01 01:16:35;;;;;;;6.97;3.80;;;17.00;1.00;;;;;;5016517;28;19981;-73
2021/08/01 01:19:01;;;;;;;5.70;3.58;;;17.00;1.00;;;;;;5020026;28;20029;-73
2021/08/01 01:21:58;;;;;;;4.85;3.35;;;17.00;1.00;;;;;;5015385;28;20033;-73
2021/08/01 01:24:27;;;;;;;5.03;4.28;;;17.00;1.00;;;;;;4993567;28;20601;-73
2021/08/01 01:27:34;;;;;;;5.47;4.47;;;17.00;1.00;;;;;;5041749;22;20414;-73
2021/08/01 01:30:02;;;;;;;4.63;3.42;;;16.90;1.00;;;;;;5013572;28;20049;-72
2021/08/01 01:32:38;;;;;;;4.38;3.28;;;16.90;1.00;;;;;;5014223;28;20049;-72
2021/08/01 01:35:16;;;;;;;6.80;3.70;;;16.90;1.00;;;;;;5022629;28;20530;-72
2021/08/01 01:37:47;;;;;;;4.72;3.67;;;17.00;1.00;;;;;;5013902;28;20454;-72
2021/08/01 01:40:18;;;;;;;5.80;3.60;;;16.90;1.00;;;;;;5013836;28;20478;-72
2021/08/01 01:42:43;;;;;;;;;;;17.00;1.00;;;;;;5014962;28;20041;-72
2021/08/01 01:45:11;;;;;;;5.43;4.20;;;16.90;1.00;;;;;;5013189;28;20008;-72
2021/08/01 01:47:37;;;;;;;7.65;4.07;;;16.90;1.00;;;;;;5012391;28;20329;-72
2021/08/01 01:50:04;;;;;;;9.75;4.15;;;16.90;1.00;;;;;;5014017;28;20449;-72
2021/08/01 01:52:31;;;;;;;6.57;4.68;;;16.80;1.00;;;;;;5012077;28;20101;-72
2021/08/01 01:54:56;;;;;;;4.60;3.95;;;16.80;1.00;;;;;;5013901;28;20021;-72
2021/08/01 01:57:22;;;;;;;4.32;3.63;;;16.80;1.00;;;;;;5013738;28;20445;-74
2021/08/01 01:59:48;;;;;;;6.45;4.22;;;17.00;1.00;;;;;;4996887;28;20034;-72
2021/08/01 02:02:14;;;;;;;4.43;3.92;;;16.90;1.00;;;;;;4993944;28;20101;-72
2021/08/01 02:04:40;;;;;;;5.18;4.28;;;16.90;1.00;;;;;;5002560;28;20045;-72
2021/08/01 02:07:06;;;;;;;13.02;9.10;;;16.80;1.00;;;;;;5012304;28;20053;-72
2021/08/01 02:10:08;;;;;;;7.32;3.95;;;16.80;1.00;;;;;;5008449;28;20034;-71
2021/08/01 02:12:41;;;;;;;7.10;4.60;;;16.80;1.00;;;;;;4992630;28;20044;-74
2021/08/01 02:15:08;;;;;;;6.82;3.80;;;16.70;1.00;;;;;;4994016;28;20455;-73
2021/08/01 02:17:40;;;;;;;6.72;4.10;;;16.70;1.00;;;;;;4976289;28;20026;-73
2021/08/01 02:20:08;;;;;;;5.07;3.60;;;16.70;1.00;;;;;;4993795;28;20076;-72
2021/08/01 02:22:35;;;;;;;8.15;3.72;;;16.60;1.00;;;;;;4993907;28;20034;-73
2021/08/01 02:25:01;;;;;;;5.97;4.05;;;16.70;1.00;;;;;;5005753;28;20388;-73
2021/08/01 02:27:31;;;;;;;7.80;4.40;;;16.50;1.00;;;;;;4998009;28;20133;-72
2021/08/01 02:29:58;;;;;;;6.13;3.53;;;16.50;1.00;;;;;;4993368;28;20029;-72
2021/08/01 02:32:24;;;;;;;3.65;3.35;;;16.40;1.00;;;;;;4994180;28;20105;-72
2021/08/01 02:34:50;;;;;;;6.22;4.00;;;16.60;1.00;;;;;;5002498;28;20068;-72
2021/08/01 02:37:17;;;;;;;4.72;4.22;;;16.50;1.00;;;;;;4994790;28;20498;-72
2021/08/01 02:39:44;;;;;;;4.35;3.83;;;16.50;1.00;;;;;;4993522;28;20466;-72
2021/08/01 02:42:10;;;;;;;4.13;3.72;;;16.40;1.00;;;;;;4993767;28;20034;-72
2021/08/01 02:44:37;;;;;;;5.10;3.72;;;16.40;1.00;;;;;;4993879;28;20101;-72
2021/08/01 02:47:08;;;;;;;5.50;4.20;;;16.40;1.00;;;;;;5011469;28;20036;-72
2021/08/01 02:49:39;;;;;;;5.28;3.90;;;16.30;1.00;;;;;;5018763;28;20055;-72
2021/08/01 02:52:06;;;;;;;5.20;3.95;;;16.30;1.00;;;;;;5010869;28;20034;-71
2021/08/01 02:54:35;;;;;;;7.20;4.38;;;16.30;1.00;;;;;;5002003;28;20038;-72
2021/08/01 02:57:04;;;;;;;5.82;4.05;;;16.30;1.00;;;;;;4996520;28;20105;-72
2021/08/01 02:59:30;;;;;;;4.57;3.10;;;16.30;1.00;;;;;;4997941;28;20057;-72
2021/08/01 03:01:57;;;;;;;4.55;4.15;;;16.30;1.00;;;;;;4996649;28;20026;-72
2021/08/01 03:04:24;;;;;;;4.68;4.25;;;16.20;1.00;;;;;;5003516;28;20087;-72
2021/08/01 03:06:51;;;;;;;7.53;4.20;;;16.20;1.00;;;;;;5003484;28;20022;-72
2021/08/01 03:09:17;;;;;;;4.53;3.83;;;16.20;1.00;;;;;;4998730;28;20045;-72
2021/08/01 03:11:43;;;;;;;5.45;3.80;;;16.20;1.00;;;;;;5011450;28;20426;-73
2021/08/01 03:14:08;;;;;;;7.00;4.10;;;16.20;1.00;;;;;;5010700;28;20123;-72
2021/08/01 03:16:34;;;;;;;4.95;4.22;;;16.20;1.00;;;;;;5019564;28;20121;-72
2021/08/01 03:18:59;;;;;;;7.40;3.78;;;16.20;1.00;;;;;;4996340;28;20030;-72
2021/08/01 03:21:25;;;;;;;6.90;4.68;;;16.20;1.00;;;;;;4997070;28;20027;-72
2021/08/01 03:23:51;;;;;;;4.70;4.10;;;16.20;1.00;;;;;;4997898;28;20084;-72
2021/08/01 03:26:17;;;;;;;5.53;4.10;;;16.10;1.00;;;;;;4992204;28;20033;-73
2021/08/01 03:28:43;;;;;;;4.57;3.88;;;16.10;1.00;;;;;;4992841;28;20080;-73
2021/08/01 03:31:08;;;;;;;5.60;3.95;;;16.20;1.00;;;;;;4992442;28;20042;-73
2021/08/01 03:33:34;;;;;;;5.75;4.88;;;16.20;1.00;;;;;;5004189;28;20367;-73
2021/08/01 03:35:59;;;;;;;4.45;4.05;;;16.30;1.00;;;;;;5014003;28;20025;-73
2021/08/01 03:38:25;;;;;;;7.15;4.50;;;16.30;1.00;;;;;;5016263;28;20025;-73
2021/08/01 03:40:51;;;;;;;9.38;4.22;;;16.30;1.00;;;;;;5016084;28;20053;-73
2021/08/01 03:43:17;;;;;;;8.02;4.15;;;16.20;1.00;;;;;;5000190;28;20030;-72
2021/08/01 03:45:43;;;;;;;5.88;3.90;;;16.20;1.00;;;;;;5014100;28;20496;-72
2021/08/01 03:48:08;;;;;;;8.02;4.40;;;16.20;1.00;;;;;;5011834;28;20038;-71
2021/08/01 03:50:34;;;;;;;7.50;5.03;;;16.20;1.00;;;;;;4993949;28;20029;-72
2021/08/01 03:53:00;;;;;;;6.25;4.30;;;16.20;1.00;;;;;;5011728;28;20038;-73
2021/08/01 03:55:26;;;;;;;5.78;4.65;;;16.30;1.00;;;;;;5011024;28;20030;-72
2021/08/01 03:57:51;;;;;;;7.55;4.47;;;16.40;1.00;;;;;;4993014;28;20045;-72
2021/08/01 04:00:17;;;;;;;6.63;5.25;;;16.30;1.00;;;;;;4995483;28;20034;-74
2021/08/01 04:02:42;;;;;;;6.78;4.22;;;16.30;1.00;;;;;;5011554;28;20030;-72
2021/08/01 04:05:08;;;;;;;6.53;3.72;;;16.30;1.00;;;;;;5005319;28;20540;-72
2021/08/01 04:07:34;;;;;;;5.53;4.13;;;16.30;1.00;;;;;;4996000;28;20034;-72
2021/08/01 04:09:59;;;;;;;6.28;4.93;;;16.30;1.00;;;;;;4992335;28;20049;-72
2021/08/01 04:12:25;;;;;;;8.35;4.82;;;16.30;1.00;;;;;;4992250;28;20026;-72
2021/08/01 04:14:51;;;;;;;6.47;3.97;;;16.30;1.00;;;;;;4992422;28;20027;-72
2021/08/01 04:17:18;;;;;;;8.05;4.15;;;16.30;1.00;;;;;;4992101;28;20474;-72
2021/08/01 04:19:44;;;;;;;4.78;4.10;;;16.30;1.00;;;;;;4992816;28;20085;-71
2021/08/01 04:22:10;;;;;;;5.38;4.00;;;16.40;1.00;;;;;;4992207;28;20085;-72
2021/08/01 04:24:36;;;;;;;8.38;4.28;;;16.40;1.00;;;;;;5006452;28;20041;-72
2021/08/01 04:27:01;;;;;;;6.78;4.57;;;16.30;1.00;;;;;;5009438;28;20037;-71
2021/08/01 04:29:27;;;;;;;5.43;4.68;;;16.30;1.00;;;;;;5011872;28;20076;-72
2021/08/01 04:31:53;;;;;;;4.97;4.05;;;16.30;1.00;;;;;;5015153;28;20029;-71
2021/08/01 04:34:18;;;;;;;5.20;4.63;;;16.40;1.00;;;;;;5013764;28;20076;-73
2021/08/01 04:36:44;;;;;;;4.70;4.30;;;16.30;1.00;;;;;;5001904;28;20112;-71
2021/08/01 04:39:09;;;;;;;7.20;4.30;;;16.40;1.00;;;;;;4976940;28;20546;-73
2021/08/01 04:41:35;;;;;;;6.00;4.53;;;16.30;1.00;;;;;;4995441;28;20120;-72
2021/08/01 04:44:01;;;;;;;5.47;4.88;;;16.30;1.00;;;;;;4995503;28;20089;-72
2021/08/01 04:46:26;;;;;;;6.18;3.95;;;16.20;1.00;;;;;;4995241;28;20101;-72
2021/08/01 04:48:52;;;;;;;5.53;3.78;;;16.30;1.00;;;;;;5009681;28;20054;-72
2021/08/01 04:51:17;;;;;;;6.82;4.20;;;16.20;1.00;;;;;;5014540;28;20034;-72
2021/08/01 04:53:43;;;;;;;5.00;3.75;;;16.30;1.00;;;;;;5013685;28;20084;-72
2021/08/01 04:56:09;;;;;;;5.60;3.70;;;16.20;1.00;;;;;;5001236;28;20034;-72
2021/08/01 04:58:35;;;;;;;8.25;3.95;;;16.30;1.00;;;;;;4995299;28;20510;-72
2021/08/01 05:01:01;;;;;;;4.15;3.53;;;16.40;1.00;;;;;;5013225;28;20029;-72
2021/08/01 05:03:26;;;;;;;4.90;3.90;;;16.40;1.00;;;;;;5014367;28;20482;-72
2021/08/01 05:05:52;;;;;;;8.38;3.83;;;16.40;1.00;;;;;;5012167;28;20109;-72
2021/08/01 05:08:17;;;;;;;4.10;3.67;;;16.40;1.00;;;;;;4995113;28;20053;-72
2021/08/01 05:10:43;;;;;;;5.60;4.75;;;16.30;1.00;;;;;;4995486;28;20066;-72
2021/08/01 05:13:08;;;;;;;4.93;3.80;;;16.30;1.00;;;;;;4996311;28;20084;-71
2021/08/01 05:15:34;;;;;;;5.97;3.72;;;16.40;1.00;;;;;;4996656;28;20042;-72
2021/08/01 05:18:02;;;;;;;7.88;4.40;;;16.30;1.00;;;;;;4996433;28;20068;-72
2021/08/01 05:20:28;;;;;;;7.78;3.78;;;16.30;1.00;;;;;;4994219;28;20041;-72
2021/08/01 05:22:54;;;;;;;4.03;3.20;;;16.40;1.00;;;;;;4996488;28;20030;-73
2021/08/01 05:25:19;;;;;;;4.90;4.43;;;16.40;1.00;;;;;;5009150;28;20033;-72
2021/08/01 05:27:45;;;;;;;6.32;5.72;;;16.40;1.00;;;;;;5013135;28;20052;-71
2021/08/01 05:30:11;;;;;;;16.13;10.07;;;16.30;1.00;;;;;;4995600;28;20030;-72
2021/08/01 05:32:36;;;;;;;5.32;3.53;;;16.40;1.00;;;;;;4997658;28;20022;-71
2021/08/01 05:35:03;;;;;;;3.75;3.10;;;16.40;1.00;;;;;;4979172;28;20394;-71
2021/08/01 05:37:30;;;;;;;5.88;3.95;;;16.40;1.00;;;;;;4983365;28;20036;-72
2021/08/01 05:39:57;;;;;;;8.15;3.90;;;16.50;1.00;;;;;;5014149;28;20052;-71
2021/08/01 05:42:22;;;;;;;4.18;3.78;;;16.40;1.00;;;;;;4975725;28;20081;-71
2021/08/01 05:44:48;;;;;;;4.88;4.22;;;16.50;1.00;;;;;;5002058;28;20061;-71
2021/08/01 05:47:13;;;;;;;6.10;4.10;;;16.60;1.00;;;;;;5014488;28;20517;-71
2021/08/01 05:49:39;;;;;;;4.55;3.75;;;16.70;1.00;;;;;;5007069;28;20087;-72
2021/08/01 05:52:04;;;;;;;5.95;3.45;;;16.80;1.00;;;;;;5001073;28;20030;-71
2021/08/01 05:54:30;;;;;;;4.25;3.28;;;16.80;1.00;;;;;;5013544;28;20058;-72
2021/08/01 05:56:56;;;;;;;4.75;3.40;;;16.90;1.00;;;;;;5012003;28;20026;-72
2021/08/01 05:59:21;;;;;;;5.30;3.35;;;17.00;1.00;;;;;;5010501;28;20100;-72
2021/08/01 06:01:47;;;;;;;4.97;3.38;;;17.10;1.00;;;;;;4993854;28;20026;-71
2021/08/01 06:04:14;;;;;;;5.03;3.67;;;17.10;1.00;;;;;;4993955;28;20058;-72
2021/08/01 06:06:39;;;;;;;6.18;3.60;;;17.20;1.00;;;;;;5000649;28;20080;-73
2021/08/01 06:09:05;;;;;;;5.45;2.90;;;17.00;1.00;;;;;;4994322;28;20398;-73
2021/08/01 06:11:30;;;;;;;4.25;3.72;;;16.90;1.00;;;;;;4993835;28;20061;-72
2021/08/01 06:13:56;;;;;;;6.47;3.40;;;16.90;1.00;;;;;;4997267;28;20093;-72
2021/08/01 06:16:22;;;;;;;6.82;4.25;;;17.00;1.00;;;;;;4988095;28;20117;-72
2021/08/01 06:18:47;;;;;;;4.05;3.58;;;16.90;1.00;;;;;;4999797;28;20530;-72
2021/08/01 06:21:18;;;;;;;3.38;3.08;;;16.90;1.00;;;;;;4994485;28;20131;-73
2021/08/01 06:23:49;;;;;;;3.30;3.00;;;16.80;1.00;;;;;;5001611;28;20022;-73
2021/08/01 06:26:15;;;;;;;7.53;3.60;;;16.90;1.00;;;;;;5013626;28;20022;-72
2021/08/01 06:28:41;;;;;;;5.05;3.88;;;16.90;1.00;;;;;;5003479;28;20025;-71
2021/08/01 06:31:08;;;;;;;3.60;3.25;;;16.90;1.00;;;;;;4996550;28;20650;-72
2021/08/01 06:33:34;;;;;;;4.10;3.60;;;17.00;1.00;;;;;;4978594;28;20030;-71
2021/08/01 06:36:03;;;;;;;6.18;3.65;;;17.00;1.00;;;;;;4995811;28;20034;-72
2021/08/01 06:38:30;;;;;;;5.32;3.70;;;17.10;1.00;;;;;;4990787;28;20030;-71
2021/08/01 06:40:55;;;;;;;3.53;3.20;;;17.10;1.00;;;;;;5016900;28;20089;-72
2021/08/01 06:43:21;;;;;;;5.15;3.47;;;17.20;1.00;;;;;;4994962;28;20034;-73
2021/08/01 06:45:47;;;;;;;3.15;2.85;;;17.30;1.00;;;;;;5010572;28;20057;-72
2021/08/01 06:48:12;;;;;;;3.50;3.20;;;17.40;1.00;;;;;;5014987;28;20108;-73
2021/08/01 06:50:38;;;;;;;4.00;2.97;;;17.40;1.00;;;;;;5014301;28;20473;-71
2021/08/01 06:53:04;;;;;;;3.10;2.88;;;17.40;1.00;;;;;;5015275;28;20018;-72
2021/08/01 06:55:29;;;;;;;3.38;3.08;;;17.50;1.00;;;;;;4994725;28;20019;-72
2021/08/01 06:57:55;;;;;;;2.97;2.47;;;17.60;1.00;;;;;;5017925;28;20044;-72
2021/08/01 07:00:21;;;;;;;3.08;2.65;;;17.60;1.00;;;;;;5016033;28;20033;-72
2021/08/01 07:02:58;;;;;;;4.18;2.83;;;17.70;1.00;;;;;;4999260;28;20036;-73
2021/08/01 07:05:25;;;;;;;4.20;2.65;;;17.70;1.00;;;;;;5007905;28;20026;-71
2021/08/01 07:07:50;;;;;;;4.72;2.70;;;17.60;1.00;;;;;;5015620;28;20029;-74
2021/08/01 07:10:16;;;;;;;4.10;2.85;;;17.60;1.00;;;;;;4978944;28;20057;-74
2021/08/01 07:12:42;;;;;;;4.32;3.70;;;17.60;1.00;;;;;;5001057;28;20036;-73
2021/08/01 07:15:25;;;;;;;4.05;3.08;;;17.50;1.00;;;;;;5014682;28;20434;-73
2021/08/01 07:17:58;;;;;;;3.67;3.30;;;17.80;1.00;;;;;;5013698;28;20025;-73
2021/08/01 07:20:24;;;;;;;3.78;3.30;;;18.10;1.00;;;;;;4998002;28;20096;-73
2021/08/01 07:22:51;;;;;;;4.43;3.70;;;17.80;1.00;;;;;;5011295;28;20037;-72
2021/08/01 07:25:17;;;;;;;3.53;3.10;;;17.60;1.00;;;;;;5011733;28;20369;-75
2021/08/01 07:27:43;;;;;;;5.10;3.70;;;17.60;1.00;;;;;;5009860;28;20037;-73
2021/08/01 07:30:09;;;;;;;3.50;3.15;;;17.60;1.00;;;;;;5008489;28;20034;-75
2021/08/01 07:32:34;;;;;;;4.60;3.40;;;17.50;1.00;;;;;;4998376;28;20036;-73
2021/08/01 07:35:00;;;;;;;4.72;3.42;;;17.50;1.00;;;;;;5004513;28;20046;-73
2021/08/01 07:37:26;;;;;;;4.03;3.47;;;17.50;1.00;;;;;;4995316;28;20446;-72
2021/08/01 07:39:51;;;;;;;6.22;3.67;;;17.40;1.00;;;;;;5004116;28;20033;-74
2021/08/01 07:42:17;;;;;;;3.72;3.10;;;17.20;1.00;;;;;;4996930;28;20094;-74
2021/08/01 07:44:46;;;;;;;3.90;3.35;;;17.10;1.00;;;;;;5001330;28;20036;-75
2021/08/01 07:47:13;;;;;;;6.47;4.57;;;17.00;1.00;;;;;;5004730;28;20030;-73
2021/08/01 07:49:39;;;;;;;3.85;3.33;;;17.00;1.00;;;;;;5005669;28;20494;-73
2021/08/01 07:52:05;;;;;;;4.63;3.60;;;17.00;1.00;;;;;;5006968;28;20037;-73
2021/08/01 07:54:30;;;;;;;3.97;3.47;;;17.00;1.00;;;;;;5001317;28;20026;-73
2021/08/01 07:56:57;;;;;;;5.85;3.42;;;16.90;1.00;;;;;;5005169;28;20050;-74
2021/08/01 07:59:23;;;;;;;3.95;3.10;;;16.90;1.00;;;;;;4997193;28;20026;-73
2021/08/01 08:01:48;;;;;;;5.03;4.40;;;16.70;1.00;;;;;;4998019;28;20516;-72
2021/08/01 08:04:14;;;;;;;4.40;3.25;;;16.80;1.00;;;;;;4997499;28;20532;-72
2021/08/01 08:06:39;;;;;;;4.47;3.35;;;16.70;1.00;;;;;;4997000;28;20153;-74
2021/08/01 08:09:05;;;;;;;7.65;3.42;;;16.70;1.00;;;;;;5016709;28;20041;-72
2021/08/01 08:11:31;;;;;;;4.43;3.10;;;16.70;1.00;;;;;;5000303;28;20510;-73
2021/08/01 08:13:57;;;;;;;4.25;3.13;;;16.90;1.00;;;;;;5001247;28;20110;-72
2021/08/01 08:16:23;;;;;;;4.60;3.40;;;17.00;1.00;;;;;;5018264;28;20516;-73
2021/08/01 08:18:52;;;;;;;4.95;3.33;;;17.10;1.00;;;;;;4999958;28;20085;-74
2021/08/01 08:21:18;;;;;;;5.50;3.30;;;17.20;1.00;;;;;;4981293;28;20030;-71
2021/08/01 08:23:44;;;;;;;3.40;3.10;;;17.50;1.00;;;;;;5003635;28;20731;-72
2021/08/01 08:26:10;;;;;;;3.97;3.03;;;17.70;1.00;;;;;;5008690;28;20453;-74
2021/08/01 08:28:36;;;;;;;9.00;2.83;;;17.70;1.00;;;;;;4991770;28;20026;-73
2021/08/01 08:31:01;;;;;;;3.05;2.08;;;17.80;1.00;;;;;;5018183;28;20485;-74
2021/08/01 08:33:27;;;;;;;5.32;3.80;;;17.90;1.00;;;;;;5017581;28;20034;-73
2021/08/01 08:35:53;;;;;;;2.85;2.63;;;17.90;1.00;;;;;;5017285;28;20030;-74
2021/08/01 08:38:18;;;;;;;3.10;2.60;;;17.90;1.00;;;;;;5011249;28;20068;-73
2021/08/01 08:40:44;;;;;;;5.28;3.00;;;17.90;1.00;;;;;;4999906;28;20177;-74
2021/08/01 08:43:12;;;;;;;3.65;2.70;;;17.80;1.00;;;;;;4999581;28;20038;-74
2021/08/01 08:45:43;;;;;;;3.70;2.55;;;17.80;1.00;;;;;;5004172;28;20029;-73
2021/08/01 08:48:09;;;;;;;3.97;2.63;;;18.00;1.00;;;;;;4999438;28;20046;-73
2021/08/01 08:50:37;;;;;;;4.13;2.33;;;18.10;1.00;;;;;;5001551;28;20030;-73
2021/08/01 08:53:04;;;;;;;2.80;2.33;;;18.10;1.00;;;;;;5002627;28;20475;-75
2021/08/01 08:55:35;;;;;;;3.15;2.83;;;18.20;1.00;;;;;;4983698;28;20022;-76
2021/08/01 08:58:06;;;;;;;4.90;3.40;;;18.20;1.00;;;;;;5004488;28;20085;-74
2021/08/01 09:00:33;;;;;;;4.30;2.83;;;18.20;1.00;;;;;;4998876;28;20057;-76
2021/08/01 09:02:59;;;;;;;2.42;2.22;;;18.30;1.00;;;;;;5000072;28;20038;-73
2021/08/01 09:05:26;;;;;;;3.78;2.50;;;18.30;1.00;;;;;;5011106;28;20059;-74
2021/08/01 09:07:52;;;;;;;4.38;2.70;;;18.40;1.00;;;;;;5006063;28;20061;-73
2021/08/01 09:10:17;;;;;;;3.65;2.55;;;18.40;1.00;;;;;;4997176;28;20113;-74
2021/08/01 09:12:52;;;;;;;2.58;2.00;;;18.60;1.00;;;;;;4996103;28;20041;-76
2021/08/01 09:15:28;;;;;;;2.30;2.10;;;18.70;1.00;;;;;;4996195;28;20034;-74
2021/08/01 09:17:55;;;;;;;3.72;2.40;;;18.90;1.00;;;;;;4976970;28;20027;-74
2021/08/01 09:20:25;;;;;;;3.45;2.58;;;19.10;1.00;;;;;;5011626;28;20437;-74
2021/08/01 09:23:00;;;;;;;3.10;2.67;;;19.20;1.00;;;;;;5017342;28;20022;-75
2021/08/01 09:25:30;;;;;;;3.45;2.20;;;19.30;99.90;;;;;;5015882;28;20037;-73
2021/08/01 09:28:24;;;;;;;7.57;4.90;;;19.40;99.90;;;;;;5013971;28;20077;-73
2021/08/01 09:30:55;;;;;;;3.88;3.05;;;19.40;99.90;;;;;;5015852;28;20040;-74
2021/08/01 09:33:44;;;;;;;2.75;2.20;;;19.30;99.90;;;;;;4997186;28;20019;-74
2021/08/01 09:36:19;;;;;;;3.13;2.25;;;19.20;99.90;;;;;;4995864;28;20030;-73
2021/08/01 09:38:47;;;;;;;2.53;2.20;;;19.20;99.90;;;;;;4995751;28;20478;-75
2021/08/01 09:41:17;;;;;;;3.15;2.63;;;19.20;99.90;;;;;;5004082;28;20034;-73
2021/08/01 09:43:52;;;;;;;2.22;2.00;;;18.90;99.90;;;;;;5001827;28;20497;-73
2021/08/01 09:46:19;;;;;;;3.17;2.38;;;18.80;99.90;;;;;;4995747;28;20437;-75
2021/08/01 09:48:44;;;;;;;6.03;2.20;;;18.80;99.90;;;;;;4995346;28;20491;-73
2021/08/01 09:51:11;;;;;;;5.05;2.30;;;18.70;99.90;;;;;;4993992;28;20037;-73
2021/08/01 09:53:39;;;;;;;6.85;2.83;;;18.70;99.90;;;;;;4995834;28;20022;-72
2021/08/01 09:56:19;;;;;;;2.60;2.30;;;18.60;99.90;;;;;;5002539;28;20026;-72
2021/08/01 09:58:47;;;;;;;3.90;2.72;;;18.40;99.90;;;;;;4991721;28;20022;-73
2021/08/01 10:01:13;;;;;;;6.65;2.90;;;18.40;99.90;;;;;;5003915;28;20036;-73
2021/08/01 10:03:44;;;;;;;4.03;3.28;;;18.40;99.90;;;;;;5004241;28;20500;-74
2021/08/01 10:06:17;;;;;;;3.00;2.63;;;18.50;99.90;;;;;;5013177;28;20113;-74
2021/08/01 10:08:51;;;;;;;5.65;2.53;;;18.60;99.90;;;;;;5013672;28;20037;-74
2021/08/01 10:11:25;;;;;;;5.22;3.13;;;18.60;99.90;;;;;;5013482;28;20514;-74
2021/08/01 10:13:53;;;;;;;4.78;2.42;;;18.70;99.90;;;;;;5010528;28;20026;-74
2021/08/01 10:16:20;;;;;;;4.90;2.47;;;18.90;99.90;;;;;;4994798;28;20026;-74
2021/08/01 10:18:47;;;;;;;3.53;3.00;;;19.20;99.90;;;;;;4988990;28;20094;-74
2021/08/01 10:21:20;;;;;;;3.53;2.40;;;19.40;99.90;;;;;;4994176;28;20085;-74
2021/08/01 10:23:48;;;;;;;3.80;2.25;;;19.60;99.90;;;;;;4999686;28;20394;-74
2021/08/01 10:26:17;;;;;;;2.97;2.08;;;20.10;99.90;;;;;;4998703;28;20121;-73
2021/08/01 10:28:54;;;;;;;2.90;2.08;;;20.30;99.90;;;;;;5000054;28;20022;-72
2021/08/01 10:31:30;;;;;;;3.17;2.13;;;20.50;99.90;;;;;;4993831;28;20054;-74
2021/08/01 10:34:15;;;;;;;2.75;2.13;;;20.40;99.90;;;;;;4995487;28;20116;-73
2021/08/01 10:36:47;;;;;;;4.18;1.80;;;20.40;99.90;;;;;;5000632;28;20116;-73
2021/08/01 10:39:15;;;;;;;3.33;2.22;;;20.40;99.90;;;;;;5007562;28;20037;-73
2021/08/01 10:41:41;;;;;;;2.15;1.88;;;20.50;99.90;;;;;;4978979;28;20031;-74
2021/08/01 10:44:11;;;;;;;4.68;2.42;;;20.60;99.90;;;;;;5000220;28;20040;-75
2021/08/01 10:46:39;;;;;;;5.15;2.15;;;20.70;99.90;;;;;;4995358;28;20033;-72
2021/08/01 10:49:06;;;;;;;2.80;1.90;;;20.70;99.90;;;;;;5003090;28;20038;-73
2021/08/01 10:51:33;;;;;;;2.55;1.95;;;20.80;99.90;;;;;;5009001;28;20680;-71
2021/08/01 10:54:21;;;;;;;2.13;1.92;;;20.70;99.90;;;;;;5007385;28;20026;-71
2021/08/01 10:56:47;;;;;;;3.90;1.92;;;20.90;99.90;;;;;;4999698;28;20033;-71
2021/08/01 10:59:44;;;;;;;2.22;2.03;;;20.60;99.90;;;;;;4995608;28;20022;-72
2021/08/01 11:02:12;;;;;;;3.58;1.77;;;20.50;99.90;;;;;;5009635;28;20393;-73
2021/08/01 11:04:39;;;;;;;1.98;1.70;;;20.60;99.90;;;;;;5002011;28;20514;-73
2021/08/01 11:07:04;;;;;;;3.78;1.80;;;20.80;99.90;;;;;;4997500;28;20117;-73
2021/08/01 11:09:30;;;;;;;2.95;1.65;;;20.70;99.90;;;;;;5004031;28;20113;-73
2021/08/01 11:12:17;;;;;;;2.42;1.70;;;20.50;99.90;;;;;;4994410;28;20022;-73
2021/08/01 11:14:50;;;;;;;2.28;1.88;;;20.60;99.90;;;;;;5003360;28;20104;-73
2021/08/01 11:17:17;;;;;;;3.20;1.90;;;20.50;99.90;;;;;;4995898;28;20026;-74
2021/08/01 11:19:43;;;;;;;2.05;1.75;;;20.50;99.90;;;;;;5008149;28;20026;-72
2021/08/01 11:22:43;;;;;;;4.05;1.90;;;20.60;99.90;;;;;;4993033;28;20092;-73
2021/08/01 11:25:24;;;;;;;2.33;1.88;;;20.90;99.90;;;;;;4998716;28;20505;-74
2021/08/01 11:28:08;;;;;;;2.55;1.65;;;21.10;99.90;;;;;;4996257;28;20030;-73
2021/08/01 11:30:49;;;;;;;2.50;1.92;;;21.30;99.90;;;;;;4996947;28;20122;-73
2021/08/01 11:33:44;;;;;;;2.53;1.92;;;21.50;99.90;;;;;;5010971;28;20026;-74
2021/08/01 11:36:13;;;;;;;1.80;1.70;;;21.80;99.90;;;;;;4995078;28;20034;-74
2021/08/01 11:38:54;;;;;;;2.33;2.13;;;21.80;99.90;;;;;;4998624;28;20026;-72
2021/08/01 11:41:33;;;;;;;;;;;22.00;99.90;;;;;;4994544;28;20294;-74
2021/08/01 11:44:03;;;;;;;3.13;1.73;;;21.90;99.90;;;;;;5000263;28;20075;-75
2021/08/01 11:46:45;;;;;;;2.83;2.07;;;21.70;99.90;;;;;;4992424;28;20022;-74
2021/08/01 11:49:12;;;;;;;3.08;1.80;;;22.00;99.90;;;;;;4996861;28;20031;-73
2021/08/01 11:51:42;;;;;;;2.42;2.00;;;21.90;99.90;;;;;;5014321;28;20033;-73
2021/08/01 11:54:10;;;;;;;2.08;1.88;;;22.00;99.90;;;;;;5011992;28;20053;-73
2021/08/01 11:56:40;;;;;;;2.42;2.08;;;21.90;99.90;;;;;;4999206;28;20026;-71
2021/08/01 11:59:13;;;;;;;2.72;1.88;;;22.30;99.90;;;;;;5008394;28;20026;-72
2021/08/01 12:01:39;;;;;;;1.60;1.50;;;22.20;99.90;;;;;;4969917;28;20461;-72
2021/08/01 12:04:11;;;;;;;2.75;2.20;;;22.00;99.90;;;;;;4991152;28;20105;-76
2021/08/01 12:06:41;;;;;;;2.05;1.85;;;21.50;99.90;;;;;;5010180;28;20034;-72
2021/08/01 12:09:24;;;;;;;1.80;1.65;;;21.10;99.90;;;;;;5011976;28;20101;-72
2021/08/01 12:11:55;;;;;;;2.15;1.95;;;20.80;99.90;;;;;;4998532;28;20117;-72
2021/08/01 12:14:38;;;;;;;3.90;2.72;;;20.60;99.90;;;;;;5002626;28;20022;-70
2021/08/01 12:17:04;;;;;;;8.18;1.80;;;20.70;99.90;;;;;;4980942;28;20027;-72
2021/08/01 12:19:46;;;;;;;2.72;2.15;;;20.80;99.90;;;;;;4998222;28;20025;-72
2021/08/01 12:22:21;;;;;;;3.28;1.92;;;20.70;99.90;;;;;;4998319;28;20034;-71
2021/08/01 12:24:51;;;;;;;2.72;2.20;;;20.70;99.90;;;;;;5018122;28;20074;-71
2021/08/01 12:27:22;;;;;;;4.18;2.13;;;21.10;99.90;;;;;;5006411;28;20030;-71
2021/08/01 12:29:53;;;;;;;5.40;2.42;;;21.30;99.90;;;;;;5005507;28;20086;-71
2021/08/01 12:32:29;;;;;;;2.67;2.00;;;21.40;99.90;;;;;;5004285;28;20085;-71
2021/08/01 12:35:09;;;;;;;2.00;1.77;;;21.30;99.90;;;;;;5004790;28;20028;-70
2021/08/01 12:37:44;;;;;;;3.08;1.83;;;21.10;99.90;;;;;;5017161;28;20084;-70
2021/08/01 12:40:12;;;;;;;2.92;2.55;;;21.10;99.90;;;;;;5008329;28;20510;-71
2021/08/01 12:42:50;;;;;;;2.42;2.08;;;20.90;99.90;;;;;;5006445;28;20076;-71
2021/08/01 12:45:15;;;;;;;3.67;2.22;;;21.20;99.90;;;;;;5022199;28;20393;-72
2021/08/01 12:47:42;;;;;;;2.10;1.75;;;21.50;99.90;;;;;;5008775;28;20025;-73
2021/08/01 12:50:08;;;;;;;2.40;1.60;;;21.90;99.90;;;;;;4998942;28;20121;-71
2021/08/01 12:52:34;;;;;;;6.50;2.00;;;22.00;99.90;;;;;;5014150;28;20073;-71
2021/08/01 12:55:01;;;;;;;2.63;2.20;;;22.20;99.90;;;;;;5004006;28;20409;-71
2021/08/01 12:57:26;;;;;;;4.00;1.95;;;22.30;99.90;;;;;;5009325;28;20029;-72
2021/08/01 13:00:15;;;;;;;4.47;1.73;;;22.40;99.90;;;;;;5016447;28;20026;-74
2021/08/01 13:02:43;;;;;;;2.00;1.77;;;22.70;99.90;;;;;;5016489;28;20076;-74
2021/08/01 13:05:26;;;;;;;4.07;1.85;;;23.10;99.90;;;;;;5012251;28;20029;-74